Date,TemperatureHighF,TemperatureAvgF,TemperatureLowF,DewpointHighF,DewpointAvgF,DewpointLowF,HumidityHigh,HumidityAvg,HumidityLow,PressureMaxIn,PressureMinIn,WindSpeedMaxMPH,WindSpeedAvgMPH,GustSpeedMaxMPH,PrecipitationSumIn
2013-1-1,43.6,42.1,40.1,37.1,33.5,30.2,86,72,60,29.99,29.87,17,3,17,0.00
2013-1-2,40.1,35.9,32.4,34.3,26.0,20.2,80,67,56,30.21,29.96,18,9,18,0.00
2013-1-3,36.1,33.4,30.9,28.5,23.6,20.5,75,67,58,30.23,30.13,15,5,15,0.00
2013-1-4,43.3,38.4,33.9,29.4,26.2,23.5,79,62,51,30.18,30.07,19,6,19,0.00
2013-1-5,40.5,38.0,36.0,36.0,28.8,23.5,87,70,57,30.36,30.12,18,5,18,0.00
2013-1-6,45.8,42.1,34.6,38.6,35.8,32.5,94,79,62,30.20,30.00,11,3,14,0.00
2013-1-7,46.5,41.8,35.7,36.3,33.4,28.4,92,72,56,30.42,30.10,16,4,16,0.00
2013-1-8,48.9,42.4,36.7,41.2,37.7,33.2,91,83,68,30.41,30.35,17,4,17,0.00
2013-1-9,54.4,46.1,38.3,48.8,42.0,35.9,96,86,64,30.36,30.20,19,2,19,0.00
2013-1-10,52.2,45.4,39.3,38.8,35.6,32.0,89,69,51,30.57,30.34,17,4,17,0.00
2013-1-11,44.9,41.4,36.7,43.8,39.2,34.4,100,92,82,30.48,30.07,8,1,8,0.05
2013-1-12,46.3,43.7,42.2,45.8,43.1,41.4,99,98,94,30.15,30.07,7,1,7,0.00
2013-1-13,51.4,45.0,41.4,51.3,44.8,40.8,100,99,98,30.12,29.97,14,4,14,0.00
2013-1-14,59.1,50.7,42.5,59.1,48.9,39.7,100,94,75,30.25,29.93,25,8,25,0.08
2013-1-15,42.4,40.4,37.8,41.2,39.2,36.3,98,95,92,30.32,30.11,21,10,21,0.54
2013-1-16,42.8,39.5,36.5,42.0,38.4,35.7,100,96,93,30.13,29.82,22,6,22,0.34
2013-1-17,43.3,41.5,37.5,42.4,38.7,34.7,98,90,75,30.10,29.94,15,3,15,0.12
2013-1-18,40.2,36.3,31.8,35.3,25.7,16.6,88,66,47,30.49,30.00,33,9,33,0.00
2013-1-19,48.2,42.1,36.3,39.2,34.0,24.8,83,73,63,30.42,29.97,22,8,22,0.00
2013-1-20,57.7,47.3,41.0,40.2,33.1,20.9,77,59,36,30.04,29.80,22,9,22,0.00
2013-1-21,44.0,37.2,32.1,37.8,27.6,17.4,89,68,52,30.09,29.75,33,10,33,0.00
2013-1-22,32.7,23.9,20.6,19.3,6.5,0.6,59,47,36,30.27,29.88,33,12,33,0.00
2013-1-23,26.9,22.6,17.7,15.4,7.0,3.6,68,51,39,30.33,30.13,31,8,31,0.00
2013-1-24,26.9,23.2,19.1,19.4,13.5,6.0,92,68,42,30.49,30.06,28,12,28,0.00
2013-1-25,25.7,23.6,21.9,20.5,12.9,6.0,89,64,44,30.48,30.05,19,6,21,0.00
2013-1-26,33.7,29.3,23.8,24.4,22.5,19.7,86,76,64,30.41,30.06,19,8,19,0.00
2013-1-27,34.3,30.9,27.4,29.8,23.6,19.1,89,74,62,30.58,30.41,12,3,12,0.00
2013-1-28,48.6,37.7,32.9,44.5,34.8,28.8,96,89,77,30.50,30.01,20,7,20,0.10
2013-1-29,59.7,46.9,41.2,51.7,43.8,38.6,96,89,73,30.11,29.99,11,3,13,0.00
2013-1-30,58.4,51.2,41.8,56.3,49.7,40.4,100,95,88,29.99,29.27,33,11,33,0.02
2013-1-31,56.9,49.2,43.9,56.3,40.6,26.8,99,74,46,29.62,29.10,39,16,39,0.58
2013-2-1,32.3,27.5,22.5,30.6,14.2,7.2,94,58,46,30.35,29.82,31,12,31,0.00
2013-2-2,32.4,26.7,20.4,29.0,15.9,7.9,91,64,47,30.36,29.99,18,6,18,0.00
2013-2-3,34.4,31.6,29.0,30.9,27.4,22.8,93,85,66,29.99,29.81,26,3,26,0.00
2013-2-4,38.0,31.8,26.3,33.1,21.4,14.4,85,65,56,30.09,29.88,26,7,26,0.00
2013-2-5,38.9,37.0,33.0,35.5,33.2,30.4,94,86,75,29.92,29.83,12,2,12,0.00
2013-2-6,43.0,37.5,31.2,35.9,32.3,28.1,96,82,64,30.34,29.90,20,5,20,0.00
2013-2-7,39.5,35.7,30.0,34.5,30.5,25.2,90,81,73,30.44,30.17,16,6,16,0.00
2013-2-8,40.7,38.3,35.6,39.6,36.1,27.6,98,92,69,30.17,29.65,32,12,32,0.30
2013-2-9,39.3,34.7,30.8,28.1,23.7,21.0,74,64,54,30.36,29.84,39,13,39,0.00
2013-2-10,40.2,34.4,29.1,34.6,24.0,16.1,90,66,46,30.48,30.26,21,7,21,0.00
2013-2-11,53.7,45.6,37.4,51.1,44.1,34.7,99,95,82,30.26,29.69,19,6,19,0.18
2013-2-12,51.4,46.4,40.4,47.2,35.9,32.0,87,67,48,29.98,29.76,18,4,18,0.00
2013-2-13,43.6,39.5,34.8,39.4,35.2,31.2,97,85,75,29.94,29.62,21,8,22,0.11
2013-2-14,43.6,39.3,35.6,37.0,35.1,33.0,97,85,70,30.01,29.72,16,5,16,0.01
2013-2-15,52.1,43.2,37.8,43.7,39.0,34.8,93,85,72,30.02,29.86,18,5,18,0.00
2013-2-16,38.1,36.4,34.7,36.5,33.0,25.6,96,88,69,29.93,29.76,28,13,28,0.04
2013-2-17,34.8,30.4,26.3,27.0,17.0,11.1,73,58,44,30.16,29.76,31,13,31,0.00
2013-2-18,38.0,30.8,23.9,32.8,18.0,9.0,86,59,43,30.36,30.16,28,8,28,0.00
2013-2-19,44.9,40.8,37.8,44.1,36.4,29.9,98,84,72,30.17,29.71,20,8,20,0.08
2013-2-20,40.2,34.8,27.2,31.8,21.3,13.2,72,58,50,30.12,29.81,29,10,29,0.00
2013-2-21,38.7,31.7,25.7,24.4,19.0,14.0,70,59,49,30.28,30.09,25,10,25,0.00
2013-2-22,34.8,32.8,30.3,33.5,26.6,22.1,95,78,68,30.37,30.19,20,5,20,0.01
2013-2-23,42.1,38.3,34.7,41.8,37.8,33.4,99,98,95,30.19,29.77,18,6,18,0.08
2013-2-24,49.9,42.0,35.1,45.1,36.1,24.9,100,81,53,30.06,29.76,30,9,30,0.01
2013-2-25,43.3,36.7,32.0,34.2,28.9,24.2,93,74,58,30.20,30.06,20,5,22,0.00
2013-2-26,49.2,40.1,34.3,48.7,37.7,31.6,99,91,82,30.21,29.55,33,12,33,0.34
2013-2-27,53.7,46.5,41.8,47.7,43.1,37.7,99,88,67,29.67,29.45,18,3,18,0.02
2013-2-28,46.4,42.9,38.7,39.8,36.1,32.2,91,77,63,29.70,29.59,17,4,17,0.10
2013-3-1,44.4,41.5,39.2,36.1,33.5,29.2,81,73,66,29.83,29.68,16,6,16,0.00
2013-3-2,39.1,36.1,32.5,29.9,26.8,24.0,75,69,61,29.84,29.77,20,8,20,0.00
2013-3-3,38.7,34.6,31.2,27.9,24.6,22.1,76,67,57,29.87,29.75,23,9,23,0.00
2013-3-4,42.6,35.9,30.1,28.1,23.4,18.6,71,60,51,30.00,29.87,24,9,24,0.00
2013-3-5,43.3,37.8,33.5,35.2,28.0,22.8,82,68,46,30.06,29.79,22,6,22,0.00
2013-3-6,41.2,39.0,34.8,39.2,36.6,31.4,100,91,74,29.89,29.47,48,25,48,0.94
2013-3-7,46.2,41.9,38.2,36.1,33.3,31.1,79,71,61,30.10,29.89,33,16,33,0.00
2013-3-8,45.0,41.4,36.7,36.3,32.4,28.3,78,70,63,30.20,30.06,33,16,33,0.00
2013-3-9,52.7,43.2,37.6,38.4,32.4,29.0,88,66,46,30.30,30.20,23,7,23,0.00
2013-3-10,53.0,44.4,38.8,41.5,37.6,33.7,94,78,49,30.33,30.23,13,3,13,0.00
2013-3-11,55.1,46.5,40.7,50.0,44.5,39.7,99,93,82,30.25,29.96,20,7,21,0.00
2013-3-12,54.7,51.0,44.1,53.4,47.6,36.0,98,88,70,29.97,29.67,37,12,37,0.70
2013-3-13,47.7,43.0,36.1,37.8,33.0,24.0,86,68,51,30.02,29.86,25,5,25,0.00
2013-3-14,45.0,38.8,33.8,26.5,22.9,19.9,63,53,40,30.09,29.97,29,10,30,0.00
2013-3-15,48.9,41.0,36.6,38.5,28.7,23.6,72,61,53,30.06,29.77,18,5,18,0.00
2013-3-16,53.2,46.2,39.4,47.0,41.0,36.4,95,82,64,29.88,29.61,22,6,22,0.00
2013-3-17,41.0,39.2,38.0,37.3,33.7,29.0,92,81,66,30.25,29.87,25,10,25,0.00
2013-3-18,40.7,38.3,32.7,39.7,34.2,26.3,98,86,63,30.31,29.83,21,10,21,0.20
2013-3-19,55.7,44.5,38.3,45.1,37.4,21.4,98,80,33,29.88,29.70,20,5,21,0.02
2013-3-20,51.7,44.8,39.3,39.8,26.7,17.1,84,50,32,29.98,29.74,34,7,34,0.00
2013-3-21,45.1,36.5,31.4,38.2,23.4,13.1,83,60,42,29.87,29.69,28,14,29,0.00
2013-3-22,46.9,37.8,30.6,31.2,22.3,14.7,65,54,41,29.97,29.85,23,8,23,0.00
2013-3-23,50.9,42.2,34.3,38.5,29.9,23.9,79,62,45,30.00,29.88,21,6,21,0.00
2013-3-24,42.4,38.9,34.9,34.4,29.9,26.0,96,71,55,29.97,29.64,18,6,18,0.06
2013-3-25,36.6,35.3,33.2,35.6,34.3,32.0,100,96,93,29.66,29.46,22,9,22,0.30
2013-3-26,48.2,41.6,35.5,38.5,35.1,31.7,96,79,55,29.94,29.66,15,5,15,0.00
2013-3-27,49.9,44.3,40.2,35.9,33.5,30.0,78,66,53,30.07,29.94,27,7,27,0.00
2013-3-28,47.6,43.9,39.5,37.9,34.0,31.1,75,68,57,30.18,30.05,22,8,22,0.00
2013-3-29,52.4,45.6,41.1,40.6,35.5,31.6,86,68,52,30.22,30.11,15,3,15,0.00
2013-3-30,55.2,47.5,38.9,46.0,38.5,32.7,88,72,47,30.19,30.09,9,2,9,0.00
2013-3-31,53.6,48.9,44.8,50.1,45.8,40.7,98,89,75,30.11,29.72,29,7,29,0.03
2013-4-1,61.6,50.6,44.6,50.0,43.6,28.8,99,79,53,29.94,29.67,24,6,24,0.01
2013-4-2,49.4,44.4,39.5,31.1,24.4,19.3,59,46,34,30.15,29.94,21,8,21,0.00
2013-4-3,50.7,44.1,39.1,29.4,24.7,20.0,59,47,33,30.34,30.14,30,10,30,0.00
2013-4-4,45.6,40.1,33.9,37.2,26.8,18.9,92,59,35,30.39,30.08,22,7,23,0.11
2013-4-5,57.8,47.4,39.2,45.4,39.5,31.8,97,77,44,30.09,29.78,18,6,18,0.67
2013-4-6,52.4,46.1,42.3,38.9,32.5,27.7,78,59,45,30.31,29.99,23,10,24,0.00
2013-4-7,57.1,49.9,43.0,49.5,44.6,35.4,91,82,73,30.28,29.98,23,11,24,0.00
2013-4-8,68.8,58.3,51.1,57.8,51.8,46.5,87,79,65,30.06,29.94,14,4,15,0.00
2013-4-9,76.0,65.2,58.1,61.1,56.1,52.2,82,73,57,30.05,29.91,19,6,19,0.00
2013-4-10,79.3,68.8,60.9,62.9,58.8,54.6,84,71,55,29.94,29.75,17,6,17,0.00
2013-4-11,73.2,63.6,52.7,66.5,59.1,51.6,97,86,66,29.85,29.73,29,7,29,0.00
2013-4-12,68.0,58.4,52.2,66.2,57.6,51.3,100,97,89,29.81,29.55,27,9,27,0.44
2013-4-13,61.8,56.1,52.2,53.0,49.0,43.3,98,78,59,29.92,29.68,26,8,26,0.00
2013-4-14,62.0,56.1,48.0,53.3,49.6,45.2,98,80,55,30.10,29.92,18,4,18,0.00
2013-4-15,60.6,57.4,55.1,54.3,51.6,48.4,89,81,74,30.27,30.09,19,11,19,0.00
2013-4-16,66.5,59.7,54.5,61.1,55.7,51.1,93,87,80,30.29,30.11,24,10,24,0.00
2013-4-17,71.6,63.2,59.3,65.6,60.2,57.3,96,90,80,30.20,30.09,18,5,18,0.00
2013-4-18,70.2,63.4,58.6,64.4,60.2,57.2,99,90,76,30.22,30.00,26,11,26,0.28
2013-4-19,71.8,65.5,54.9,66.9,63.0,53.0,98,92,83,30.00,29.60,39,13,39,0.66
2013-4-20,60.0,54.6,48.9,52.9,39.9,31.6,95,59,38,30.28,29.73,24,10,24,0.19
2013-4-21,53.4,48.2,44.6,40.0,34.8,29.5,77,60,48,30.57,30.28,27,11,27,0.00
2013-4-22,53.2,48.7,44.0,46.2,42.0,35.3,90,78,70,30.56,30.36,23,13,23,0.00
2013-4-23,57.3,51.3,46.7,49.1,46.2,42.8,93,83,68,30.37,30.11,20,10,20,0.00
2013-4-24,67.0,57.9,47.9,60.0,54.2,46.2,97,88,72,30.11,29.79,24,11,24,0.00
2013-4-25,65.5,55.4,49.6,58.0,43.9,38.4,80,66,49,30.26,29.87,31,9,31,0.00
2013-4-26,63.4,57.0,47.9,50.1,44.9,40.4,85,65,46,30.41,30.26,18,4,18,0.00
2013-4-27,67.0,59.0,49.0,54.8,47.6,38.2,97,68,39,30.39,30.26,18,3,18,0.00
2013-4-28,64.5,59.0,53.8,52.6,48.2,44.1,81,68,51,30.27,30.13,18,6,18,0.00
2013-4-29,59.4,56.7,54.6,58.3,55.3,49.0,98,95,75,30.15,30.03,28,13,28,0.68
2013-4-30,59.1,57.4,56.0,57.0,55.6,52.3,98,94,84,30.24,30.05,23,13,23,0.04
2013-5-1,65.6,58.0,51.3,53.8,50.0,45.7,91,76,53,30.39,30.24,23,11,23,0.00
2013-5-2,65.0,55.8,48.9,55.4,50.5,47.4,97,83,59,30.41,30.29,17,7,17,0.00
2013-5-3,59.8,55.6,51.0,51.2,48.2,44.2,91,77,62,30.35,30.27,24,14,24,0.00
2013-5-4,64.3,55.2,49.9,53.1,48.2,43.5,93,78,57,30.31,30.17,25,11,25,0.00
2013-5-5,60.7,53.1,48.3,52.2,47.2,43.3,90,81,69,30.22,30.13,22,11,22,0.00
2013-5-6,61.4,55.7,50.4,59.2,54.3,48.6,98,95,90,30.16,30.03,23,12,23,0.00
2013-5-7,63.1,60.4,58.0,61.7,59.6,57.4,99,97,94,30.04,29.90,23,14,23,0.67
2013-5-8,66.7,60.2,56.8,62.8,58.2,56.0,99,93,78,29.98,29.91,15,3,15,0.07
2013-5-9,70.5,61.5,55.3,63.9,59.1,54.8,99,92,77,29.97,29.89,11,2,11,0.04
2013-5-10,76.3,67.8,59.7,68.0,63.2,58.8,99,86,68,29.99,29.85,27,3,27,0.00
2013-5-11,76.0,68.2,64.4,68.3,64.8,62.2,96,89,72,29.91,29.67,21,5,21,0.06
2013-5-12,65.2,61.8,56.3,62.8,48.2,34.1,97,64,38,29.99,29.69,22,8,22,0.00
2013-5-13,59.8,55.7,51.9,39.7,35.4,29.9,55,46,35,30.11,29.99,23,8,23,0.01
2013-5-17,76.2,74.9,73.9,64.6,59.5,49.5,71,59,49,30.06,30.04,7,1,7,0.00
2013-5-18,61.6,61.2,60.9,60.5,59.8,59.1,96,95,93,30.19,30.17,19,12,19,0.01
2013-5-19,72.8,66.9,61.4,68.6,65.0,60.2,98,94,84,30.18,30.07,15,4,15,0.00
2013-5-20,77.0,70.5,67.0,72.5,68.7,66.3,98,94,83,30.10,29.96,14,4,14,0.00
2013-5-21,77.8,71.9,67.8,73.3,69.6,66.8,98,93,83,29.98,29.86,14,4,14,0.00
2013-5-22,78.1,73.5,69.7,74.3,71.0,68.8,98,92,86,29.92,29.82,18,6,18,0.00
2013-5-23,76.1,72.3,69.5,72.1,69.8,68.3,96,92,85,29.89,29.74,22,7,23,0.00
2013-5-24,69.8,59.8,52.4,68.5,53.7,39.2,96,81,60,30.08,29.71,33,11,33,0.00
2013-5-25,64.5,56.6,48.3,45.3,41.4,37.2,71,57,42,30.11,30.03,28,11,28,0.00
2013-5-26,70.3,62.1,54.2,51.6,44.4,40.8,73,53,39,30.18,30.09,19,5,19,0.00
2013-5-27,68.5,64.0,58.4,59.4,52.7,43.7,86,67,41,30.25,30.15,13,1,13,0.00
2013-5-28,76.7,68.8,63.4,71.4,64.7,59.4,96,87,77,30.17,30.03,26,6,26,0.07
2013-5-29,83.1,74.2,68.1,73.2,69.3,66.0,95,85,70,30.10,30.04,17,6,17,0.15
2013-5-30,83.8,76.0,70.9,74.8,70.6,66.5,91,84,71,30.16,30.08,12,5,12,0.01
2013-5-31,83.5,76.2,71.0,74.7,71.2,67.3,92,85,71,30.13,30.01,18,6,18,0.00
2013-6-1,85.3,77.7,71.6,76.8,72.7,68.9,93,85,72,30.03,29.91,17,6,17,0.00
2013-6-2,82.6,77.1,71.5,75.7,71.9,67.0,92,84,76,29.91,29.81,25,6,25,0.00
2013-6-3,72.3,70.8,69.4,69.6,68.5,67.2,96,93,87,29.89,29.81,10,1,10,0.01
2013-6-4,74.5,68.3,62.7,68.5,56.5,49.8,94,67,48,30.09,29.89,24,6,25,0.00
2013-6-5,77.0,70.2,62.2,65.3,60.3,55.1,92,72,48,30.14,30.04,20,4,20,0.00
2013-6-6,76.2,70.2,64.8,67.8,63.9,59.6,92,81,69,30.07,29.83,24,12,24,0.00
2013-6-7,71.6,70.7,67.5,71.0,69.8,66.7,99,97,92,29.84,29.50,25,11,25,1.44
2013-6-8,74.2,70.0,67.2,69.3,66.7,64.4,98,90,78,30.05,29.62,19,3,19,0.08
2013-6-9,80.0,73.6,67.2,72.7,69.8,66.3,99,88,71,30.17,30.05,16,2,16,0.01
2013-6-10,79.3,74.1,70.4,76.1,72.5,68.7,99,95,89,30.08,29.79,29,9,29,1.04
2013-6-11,82.5,75.5,71.0,74.0,70.0,67.2,96,84,66,29.82,29.73,16,5,16,0.00
2013-6-12,84.0,78.5,73.0,76.7,71.7,66.5,93,80,67,29.83,29.76,15,4,15,0.00
2013-6-13,86.3,76.2,71.4,77.1,71.0,62.3,95,84,68,29.78,29.43,26,9,29,0.08
2013-6-14,73.2,68.2,60.7,64.9,60.6,55.6,96,77,60,29.92,29.52,33,11,33,0.13
2013-6-15,79.3,72.8,66.3,69.5,64.3,61.0,89,75,61,30.04,29.92,14,3,14,0.00
2013-6-16,83.3,76.3,71.6,73.4,70.0,66.0,92,81,68,29.99,29.84,18,4,18,0.00
2013-6-17,81.2,76.7,72.6,75.4,72.7,69.9,93,88,78,29.94,29.86,15,4,15,0.22
2013-6-18,76.5,72.1,66.3,74.6,70.3,64.1,97,94,91,29.89,29.75,24,5,24,1.24
2013-6-19,74.5,70.0,66.0,67.2,65.6,62.7,95,86,72,30.14,29.84,21,6,21,0.01
2013-6-20,76.5,71.0,66.3,65.7,60.6,53.4,87,70,56,30.25,30.13,20,6,20,0.00
2013-6-21,79.1,71.9,64.2,69.4,63.1,54.7,86,74,57,30.28,30.21,17,3,17,0.00
2013-6-22,81.3,74.4,66.5,71.8,67.4,63.1,91,79,65,30.23,30.13,18,4,18,0.00
2013-6-23,78.8,74.3,70.5,76.1,71.5,67.8,97,91,83,30.16,30.05,19,5,19,0.20
2013-6-24,86.3,77.9,71.7,79.5,74.7,70.1,96,90,77,30.10,29.99,20,3,21,0.03
2013-6-25,87.5,79.7,71.3,79.3,74.9,69.4,97,86,71,30.02,29.86,28,3,28,0.01
2013-6-26,86.0,79.7,73.4,79.7,74.5,68.5,90,84,72,29.93,29.76,21,4,21,0.01
2013-6-27,82.7,76.9,72.7,78.1,73.2,70.1,94,89,83,29.80,29.58,27,6,27,0.02
2013-6-28,84.8,77.4,71.4,77.7,73.8,70.1,97,89,78,29.60,29.47,26,6,26,0.20
2013-6-29,84.2,78.4,72.9,77.2,73.7,70.7,96,86,69,29.67,29.49,19,5,19,0.18
2013-6-30,83.2,79.4,76.8,78.8,76.3,74.2,95,90,82,29.83,29.67,21,8,21,0.02
2013-7-1,79.6,77.1,74.3,76.7,74.6,71.9,97,92,86,29.98,29.82,23,9,23,0.01
2013-7-2,81.5,77.0,73.7,77.1,74.3,71.5,97,91,85,30.16,29.98,28,8,28,0.80
2013-7-3,84.5,78.9,75.8,79.5,75.8,72.8,95,90,82,30.22,30.14,22,8,22,0.07
2013-7-4,85.0,80.1,76.3,79.1,76.2,74.0,95,88,79,30.25,30.16,22,8,22,0.00
2013-7-5,86.6,81.5,76.6,80.1,76.8,73.4,92,86,76,30.22,30.11,20,6,20,0.00
2013-7-6,88.2,82.9,78.4,81.6,78.0,75.3,92,85,77,30.16,30.05,15,5,16,0.00
2013-7-7,88.5,82.2,75.8,80.7,76.2,70.6,89,82,73,30.09,29.97,19,5,19,0.00
2013-7-8,84.9,79.1,74.6,75.8,73.1,70.6,93,82,69,30.08,30.00,14,3,14,0.00
2013-7-9,84.2,80.4,76.9,78.6,75.3,73.1,91,85,74,30.08,29.97,13,3,14,0.00
2013-7-10,85.7,80.2,75.4,80.3,76.7,71.8,94,89,78,29.99,29.83,25,5,25,0.06
2013-7-11,78.2,76.5,75.6,75.1,73.5,72.2,93,91,88,29.87,29.82,17,6,18,0.00
2013-7-12,73.7,72.7,71.2,72.1,71.5,70.6,98,96,93,29.97,29.88,21,10,21,1.37
2013-7-13,83.9,77.5,69.6,78.6,74.2,68.7,99,90,79,30.25,29.97,17,3,17,0.00
2013-7-14,86.2,81.3,77.3,79.2,76.7,73.4,98,86,67,30.31,30.25,14,5,14,0.00
2013-7-15,88.8,82.2,76.4,81.2,77.6,74.3,95,86,74,30.28,30.14,11,3,12,0.00
2013-7-16,89.5,84.8,80.6,79.3,77.3,74.6,88,79,63,30.18,30.12,16,5,16,0.00
2013-7-17,91.1,84.7,79.1,80.2,77.7,74.2,96,80,58,30.16,30.06,11,2,11,0.00
2013-7-18,92.1,85.7,80.2,83.9,79.9,76.6,94,83,67,30.08,29.97,14,2,14,0.00
2013-7-19,91.7,86.6,81.9,83.4,80.6,77.7,91,82,75,29.98,29.84,18,5,18,0.00
2013-7-20,90.3,84.6,81.0,82.6,78.8,76.7,89,83,72,29.87,29.77,18,6,18,0.00
2013-7-21,87.8,81.6,76.0,78.6,75.3,70.8,93,82,68,29.91,29.84,21,3,21,0.02
2013-7-22,86.2,80.9,76.0,79.1,76.0,73.4,94,85,74,29.90,29.74,20,4,20,0.00
2013-7-23,86.4,81.5,77.1,77.6,74.8,70.9,93,81,64,29.74,29.60,17,5,17,0.00
2013-7-24,80.0,79.0,77.3,74.1,71.7,67.2,85,79,71,29.85,29.64,16,2,16,0.00
2013-7-25,77.2,72.0,67.9,69.4,65.3,60.5,85,80,72,29.99,29.85,25,11,25,0.00
2013-7-26,80.0,74.4,68.5,69.9,65.6,61.7,88,75,54,30.05,29.98,17,4,17,0.00
2013-7-27,82.0,77.7,74.1,73.0,70.5,67.8,89,79,68,30.03,29.91,20,8,20,0.00
2013-7-28,83.8,78.1,73.5,76.9,72.8,68.1,92,84,74,29.93,29.84,21,6,21,0.24
2013-7-29,81.2,75.5,72.0,71.8,63.7,56.8,93,68,50,30.12,29.93,20,5,20,0.00
2013-7-30,80.2,75.3,71.5,66.8,64.0,60.0,81,68,56,30.19,30.11,17,3,17,0.00
2013-7-31,80.0,76.7,72.6,73.0,68.7,65.7,82,76,68,30.12,30.00,20,4,20,0.00
2013-8-1,77.1,74.1,70.1,74.4,71.7,67.9,97,92,82,30.00,29.78,20,6,22,0.37
2013-8-2,83.8,77.6,72.5,74.6,70.6,66.8,94,80,63,29.94,29.81,15,3,15,0.00
2013-8-3,79.7,75.8,71.1,71.3,69.2,65.6,94,80,66,29.94,29.88,13,4,13,0.01
2013-8-4,80.2,74.3,69.4,70.0,64.2,56.1,95,72,51,29.98,29.86,19,7,19,0.01
2013-8-5,77.0,73.3,68.8,64.4,60.9,56.0,76,65,52,30.08,29.98,17,4,17,0.00
2013-8-6,74.8,71.7,68.6,69.4,67.4,63.6,96,87,71,30.06,29.98,21,9,22,0.09
2013-8-7,81.3,74.9,69.4,75.7,71.9,67.6,97,91,79,30.06,29.98,23,11,23,0.05
2013-8-8,83.2,79.0,76.2,78.4,75.4,73.1,94,89,84,30.02,29.96,19,9,21,0.00
2013-8-9,89.5,81.3,76.6,81.1,77.2,74.5,95,88,72,29.96,29.81,18,6,18,0.33
2013-8-10,80.8,77.3,70.7,76.2,69.8,62.6,93,78,58,30.05,29.90,13,3,13,0.00
2013-8-11,81.1,76.8,71.5,74.1,71.6,64.1,92,84,72,30.08,29.99,13,1,13,0.00
2013-8-12,85.7,79.2,74.1,77.2,74.3,71.9,98,86,67,30.00,29.88,7,1,9,0.00
2013-8-13,82.8,79.0,71.5,77.5,73.8,69.7,96,84,70,29.89,29.71,20,6,20,0.17
2013-8-14,75.2,70.7,66.1,72.2,58.9,51.8,97,67,56,30.06,29.75,29,9,30,0.05
2013-8-15,74.9,69.2,64.4,61.8,56.9,51.8,81,66,47,30.16,30.05,20,4,20,0.00
2013-8-16,77.1,71.9,64.0,64.7,60.3,55.2,85,68,50,30.17,30.10,16,4,16,0.00
2013-8-17,77.3,72.5,68.6,68.5,64.2,60.6,84,75,58,30.24,30.15,18,7,18,0.00
2013-8-18,72.3,69.5,65.6,68.9,65.6,61.9,94,88,77,30.19,30.12,20,5,20,0.24
2013-8-19,73.5,70.0,66.0,69.1,66.6,63.6,95,89,85,30.15,30.05,12,2,12,0.00
2013-8-20,80.8,74.8,68.0,74.6,71.0,66.5,97,88,72,30.14,30.06,12,2,12,0.00
2013-8-21,83.4,78.1,73.1,76.9,74.6,71.6,97,89,78,30.17,30.06,17,5,17,0.01
2013-8-22,84.4,78.1,73.3,77.2,73.6,70.8,95,86,73,30.07,29.90,18,4,18,0.09
2013-8-23,78.1,75.8,71.1,72.6,68.7,60.1,86,79,60,30.07,29.89,21,7,21,0.00
2013-8-24,78.9,73.2,67.8,70.6,66.6,63.7,91,80,65,30.31,30.07,18,7,18,0.00
2013-8-25,78.5,72.5,67.2,67.0,61.4,57.0,90,69,52,30.39,30.25,13,3,14,0.00
2013-8-26,81.8,74.6,67.6,72.3,65.8,58.3,81,74,64,30.27,29.98,17,5,17,0.00
2013-8-27,76.8,74.2,73.1,69.6,68.1,67.4,86,81,76,29.98,29.91,16,5,16,0.00
2013-8-28,74.2,73.7,73.4,73.2,72.6,72.2,97,96,96,29.82,29.80,7,0,7,0.29
2013-8-29,81.2,75.9,72.4,75.5,72.7,67.2,97,90,81,30.00,29.80,21,7,21,0.22
2013-8-30,74.4,71.4,69.9,70.9,68.4,67.0,94,90,85,30.02,29.98,12,2,12,0.00
2013-9-2,83.8,79.5,75.3,78.4,75.8,72.5,94,89,80,29.78,29.70,13,4,13,0.00
2013-9-3,79.9,78.0,74.4,76.6,72.0,62.5,91,82,58,29.91,29.69,22,6,22,0.00
2013-9-4,78.2,73.4,67.6,66.5,62.6,59.0,79,69,57,30.05,29.91,20,6,20,0.00
2013-9-5,83.3,76.7,70.8,68.1,65.0,57.3,84,68,54,30.08,29.96,20,6,20,0.00
2013-9-6,73.8,68.5,62.7,61.9,56.4,52.1,81,66,52,30.22,30.08,21,6,21,0.00
2013-9-7,77.5,71.4,65.7,66.6,63.1,59.4,88,76,62,30.11,29.90,15,4,15,0.00
2013-9-8,84.9,76.4,69.8,73.2,68.3,61.9,88,76,61,30.01,29.83,17,4,17,0.00
2013-9-9,75.5,70.8,64.2,70.2,63.2,55.1,93,77,65,30.16,30.01,17,5,17,0.00
2013-9-10,85.1,77.7,72.0,77.2,73.8,69.6,96,88,76,30.17,30.07,14,5,14,0.00
2013-9-11,88.4,80.5,76.0,78.2,75.7,73.2,94,86,69,30.12,29.98,17,4,17,0.00
2013-9-12,86.1,77.9,71.8,78.3,73.2,69.9,96,86,72,29.99,29.71,19,5,22,0.25
2013-9-13,77.3,72.9,66.6,72.6,63.4,54.1,95,74,49,29.87,29.66,26,8,26,0.55
2013-9-14,67.7,64.1,58.7,57.5,54.0,50.9,84,70,57,30.13,29.87,21,8,21,0.00
2013-9-15,73.1,67.1,60.3,63.5,58.0,53.1,87,73,57,30.21,30.07,19,6,19,0.00
2013-9-16,70.7,68.8,66.2,64.9,62.1,57.1,88,79,66,30.19,30.01,24,9,24,0.00
2013-9-17,66.4,60.9,55.3,58.6,51.8,47.7,86,72,57,30.38,30.19,26,11,26,0.00
2013-9-18,67.8,62.7,59.0,57.5,52.5,48.8,83,69,57,30.32,30.17,17,5,18,0.00
2013-9-19,72.2,66.8,59.9,61.8,59.0,55.1,88,76,62,30.17,30.06,13,4,13,0.00
2013-9-20,75.8,69.0,61.0,65.5,62.2,58.4,96,79,66,30.07,29.94,18,5,18,0.00
2013-9-21,75.8,70.2,65.3,70.3,65.7,60.9,96,86,71,29.97,29.67,25,9,25,0.23
2013-9-22,71.0,66.8,63.2,63.9,59.7,53.8,96,79,58,29.90,29.68,21,8,21,0.29
2013-9-23,65.1,61.0,57.6,55.5,51.0,46.9,78,70,58,30.05,29.89,24,8,24,0.00
2013-9-24,67.3,61.3,57.8,57.3,53.1,49.5,88,75,63,30.07,29.91,16,4,16,0.00
2013-9-25,70.9,64.6,59.7,60.2,55.6,51.2,88,73,52,29.95,29.85,12,3,12,0.00
2013-9-26,72.6,67.0,63.1,62.2,60.2,58.2,90,79,63,30.04,29.88,14,3,14,0.00
2013-9-27,71.2,65.8,62.7,61.7,59.3,56.5,91,80,64,30.21,30.04,20,6,20,0.00
2013-9-28,70.8,65.0,60.9,60.8,58.5,56.3,90,80,63,30.26,30.18,19,7,19,0.00
2013-9-29,72.0,65.3,60.5,62.5,59.2,54.5,94,81,63,30.17,30.03,16,6,16,0.00
2013-9-30,72.0,64.7,60.0,60.0,56.8,54.4,91,76,58,30.06,29.97,12,2,12,0.00
2013-10-1,76.0,69.0,62.7,67.5,62.6,57.4,88,80,67,30.04,29.94,13,2,13,0.00
2013-10-2,80.3,72.8,67.2,70.5,65.6,62.5,87,79,61,30.05,29.97,12,3,12,0.00
2013-10-3,80.0,72.1,64.6,72.2,66.9,62.6,95,84,69,30.08,30.01,10,1,10,0.00
2013-10-4,80.0,73.3,67.2,71.4,69.0,66.3,98,87,67,30.05,29.98,10,2,10,0.00
2013-10-5,82.8,75.6,70.5,74.1,70.1,67.8,94,83,66,30.06,29.98,10,2,10,0.00
2013-10-6,82.3,75.7,72.2,74.8,71.4,69.6,96,87,74,30.01,29.92,27,8,27,0.00
2013-10-7,77.3,70.6,61.8,73.8,67.0,52.8,96,89,66,30.02,29.79,29,12,30,0.49
2013-10-8,64.0,62.3,61.1,55.2,52.9,50.2,77,71,64,30.24,30.01,28,12,30,0.00
2013-10-9,62.7,60.2,57.4,57.4,55.3,52.1,95,84,72,30.25,30.14,27,12,27,0.22
2013-10-10,62.0,59.2,57.3,61.4,58.3,55.6,98,97,94,30.14,29.90,28,15,29,0.83
2013-10-11,65.6,63.7,61.9,64.7,63.0,61.3,100,98,96,29.94,29.85,24,11,24,0.58
2013-10-12,65.6,63.6,62.0,63.8,62.5,61.1,98,96,91,30.10,29.92,19,9,19,0.12
2013-10-13,64.8,63.0,60.3,62.9,60.3,56.7,97,91,85,30.29,30.10,26,12,26,0.00
2013-10-14,65.9,61.3,56.9,60.4,57.7,54.6,93,88,80,30.29,30.20,19,8,19,0.00
2013-10-15,68.8,62.2,56.7,61.9,57.5,54.3,94,85,72,30.22,30.05,14,6,14,0.00
2013-10-16,63.3,62.1,60.6,59.8,59.2,58.2,95,90,84,30.05,30.01,7,2,7,0.00
2013-10-18,65.7,60.8,54.9,52.1,48.0,46.3,83,63,51,29.99,29.94,15,2,15,0.00
2013-10-19,63.2,60.9,57.5,61.7,55.8,50.3,95,84,72,29.98,29.77,17,6,17,0.02
2013-10-20,62.1,56.0,51.0,53.8,43.8,39.7,79,64,46,30.08,29.82,27,5,27,0.00
2013-10-21,64.3,58.7,50.5,56.1,49.1,43.4,87,71,49,30.14,29.95,21,5,21,0.00
2013-10-22,64.8,60.8,57.0,56.5,52.7,45.0,87,75,61,29.95,29.78,17,5,17,0.00
2013-10-23,58.4,51.7,47.2,48.3,43.8,39.4,92,75,57,29.85,29.62,23,8,23,0.12
2013-10-24,53.2,48.2,45.4,42.3,35.6,29.5,80,62,47,30.10,29.85,21,8,21,0.00
2013-10-25,55.0,48.3,42.9,39.5,36.4,34.4,76,64,50,30.29,30.10,21,8,21,0.00
2013-10-26,57.4,50.9,42.1,40.5,36.5,32.3,76,59,43,30.28,29.92,22,6,23,0.00
2013-10-27,60.0,53.7,49.2,48.6,41.7,38.4,95,65,49,30.12,29.91,21,4,21,0.00
2013-10-28,60.0,53.0,49.3,53.2,47.2,41.8,93,81,72,30.25,30.12,16,4,16,0.00
2013-10-29,60.2,54.3,48.9,53.4,49.1,43.5,93,83,71,30.34,30.25,11,4,11,0.00
2013-10-30,62.0,57.0,54.0,58.9,55.5,52.2,98,95,88,30.31,30.14,11,3,11,0.02
2013-10-31,64.8,60.6,55.7,62.0,58.8,55.2,99,94,86,30.17,29.80,19,6,19,0.02
2013-11-1,68.2,65.3,62.3,64.4,62.7,60.6,98,91,82,29.80,29.58,25,7,25,0.05
2013-11-2,66.3,60.2,54.2,63.9,55.0,43.7,98,84,61,29.85,29.60,21,3,22,0.07
2013-11-3,54.3,51.8,44.0,46.9,41.2,33.3,83,67,49,30.42,29.85,28,12,28,0.00
2013-11-4,46.2,42.8,38.3,36.7,31.4,27.3,74,64,52,30.60,30.42,23,10,23,0.00
2013-11-5,57.8,50.5,43.3,52.1,45.8,36.3,91,84,71,30.58,30.45,13,4,13,0.00
2013-11-6,61.9,57.3,52.7,57.2,53.1,49.1,97,86,78,30.45,30.05,17,6,19,0.00
2013-11-7,64.3,57.3,47.9,61.4,51.9,30.3,99,83,52,30.05,29.81,29,7,29,0.00
2013-11-8,51.9,47.2,43.9,34.9,30.8,27.3,64,53,43,30.29,30.03,33,8,33,0.00
2013-11-9,53.5,48.9,42.0,40.9,34.6,29.3,69,58,47,30.33,30.01,22,5,22,0.00
2013-11-10,64.1,53.9,47.6,45.9,38.0,31.1,70,55,39,30.19,29.91,33,10,33,0.00
2013-11-11,53.4,49.5,44.0,46.3,37.9,32.8,83,64,53,30.28,30.00,20,7,20,0.00
2013-11-12,53.2,44.3,36.8,42.6,31.8,19.9,83,62,48,30.36,29.94,34,14,35,0.00
2013-11-13,43.1,38.1,33.5,27.2,24.4,21.4,70,58,46,30.43,30.35,28,9,28,0.00
2013-11-14,51.9,44.8,36.8,42.3,32.6,23.4,85,63,47,30.38,30.22,16,4,16,0.00
2013-11-15,50.9,47.7,44.7,45.1,37.9,32.0,91,69,56,30.27,30.18,18,4,18,0.00
2013-11-16,51.0,48.9,46.8,50.5,48.1,44.5,99,97,89,30.30,30.21,6,0,6,0.22
2013-11-17,59.1,53.1,48.1,57.1,52.4,47.8,100,97,89,30.22,29.76,15,3,15,0.00
2013-11-18,67.8,58.8,52.4,60.7,47.0,31.9,100,70,35,29.90,29.68,26,5,26,0.20
2013-11-19,52.5,46.9,42.7,35.6,33.0,29.9,69,58,48,30.33,29.88,33,13,33,0.00
2013-11-20,45.7,41.2,37.1,36.6,32.3,27.9,82,71,60,30.54,30.33,23,10,23,0.00
2013-11-21,48.5,43.8,38.9,44.9,39.5,33.9,95,85,78,30.54,30.37,14,4,15,0.00
2013-11-22,58.7,52.1,46.0,55.0,50.3,44.7,99,94,84,30.37,29.96,14,2,14,0.06
2013-11-23,55.4,46.9,35.1,54.8,33.7,17.6,98,61,38,30.16,29.97,34,11,34,0.00
2013-11-24,34.9,29.5,26.4,18.3,12.7,8.7,59,49,39,30.50,30.15,36,14,36,0.00
2013-11-25,38.2,31.5,25.9,26.5,17.6,12.9,73,56,47,30.57,30.35,21,7,21,0.00
2013-11-26,57.6,41.1,36.3,57.2,33.9,19.4,99,78,45,30.35,29.49,39,8,39,0.89
2013-11-27,58.1,41.0,32.0,57.8,37.5,19.8,99,88,59,30.00,29.45,34,12,36,0.80
2013-11-28,38.1,33.6,30.1,28.7,19.9,16.5,74,57,44,30.47,30.00,27,6,27,0.00
2013-11-29,39.9,37.0,33.7,30.1,27.8,24.0,80,69,61,30.70,30.44,20,8,20,0.00
2013-11-30,37.0,33.9,29.9,31.4,26.7,22.9,90,75,64,30.69,30.35,16,6,16,0.00
2013-12-1,42.5,37.5,31.2,38.6,35.0,29.8,98,91,82,30.35,30.00,9,1,9,0.00
2013-12-2,45.7,41.3,37.0,40.5,38.7,35.7,97,91,78,30.00,29.85,10,1,10,0.00
2013-12-3,49.4,43.8,40.8,41.4,39.6,37.0,94,85,66,29.98,29.85,10,1,10,0.00
2013-12-4,51.2,46.2,41.3,50.7,44.9,39.7,98,95,91,30.08,29.97,10,1,10,0.00
2013-12-5,58.1,50.6,44.9,57.8,50.3,44.3,100,99,96,30.07,29.93,16,4,16,0.00
2013-12-6,58.6,48.7,40.1,58.5,48.3,39.2,100,99,96,30.12,29.88,27,10,27,0.41
2013-12-7,43.2,39.8,36.0,39.6,34.9,27.8,97,83,69,30.51,30.08,26,14,26,0.28
2013-12-8,36.0,32.7,29.4,33.3,28.9,24.5,98,86,72,30.55,30.24,27,7,27,0.18
2013-12-9,38.4,35.8,33.7,37.1,34.9,33.1,100,97,94,30.25,30.01,16,4,16,0.80
2013-12-10,37.7,35.7,34.2,35.8,32.5,24.2,98,89,62,30.21,29.94,17,3,17,0.26
2013-12-11,40.2,35.9,31.6,33.7,26.4,20.3,92,69,55,30.40,30.21,14,3,14,0.00
2013-12-12,37.0,31.6,28.9,33.2,20.1,13.1,90,63,46,30.41,30.22,29,8,29,0.00
2013-12-13,43.1,36.6,32.1,33.8,23.9,18.8,88,61,42,30.29,30.20,19,5,19,0.00
2013-12-14,46.4,39.4,35.9,46.1,36.7,31.8,100,90,80,30.31,29.65,21,7,21,0.65
2013-12-15,47.8,40.2,35.0,41.1,34.4,25.9,98,81,62,29.94,29.59,21,6,21,0.00
2013-12-16,37.6,34.9,32.8,29.9,27.2,23.4,79,73,66,30.18,29.93,21,7,21,0.00
2013-12-17,39.9,36.4,33.5,38.0,33.3,27.0,95,88,75,30.15,29.91,18,7,18,0.04
2013-12-18,40.9,35.9,32.8,33.2,29.1,24.0,95,77,53,30.22,29.95,21,4,21,0.00
2013-12-19,51.9,43.7,33.8,39.7,34.8,29.8,91,72,56,30.19,30.06,17,5,17,0.00
2013-12-20,53.3,48.7,42.3,49.8,42.8,36.7,92,80,66,30.11,29.99,17,6,17,0.00
2013-12-21,58.7,52.8,46.1,53.3,49.3,43.2,97,88,78,30.02,29.91,20,7,20,0.00
2013-12-22,63.6,55.6,49.6,60.9,54.7,48.7,99,97,89,30.03,29.86,24,7,24,0.21
2013-12-23,55.9,51.8,49.9,55.6,51.4,49.1,100,99,97,29.99,29.93,10,2,10,0.02
2013-12-29,51.9,47.0,43.0,51.4,45.7,40.2,99,95,88,29.81,29.48,24,6,24,0.66
2013-12-30,47.4,41.4,34.6,42.8,36.6,26.5,96,83,71,30.16,29.80,21,6,21,0.00
2013-12-31,45.8,36.7,30.5,34.8,25.8,21.2,75,65,51,30.31,30.09,26,8,26,0.00
2014-1-1,43.3,37.4,30.8,37.1,29.4,21.2,95,73,58,30.41,30.12,22,6,22,0.00
2014-1-2,39.9,37.3,30.6,38.0,35.9,29.8,97,95,91,30.12,29.55,18,5,18,0.12